sensor_id;sensor_type;location;lat;lon;timestamp;P1;durP1;ratioP1;P2;durP2;ratioP2
19879;SDS011;10102;50.828;4.416;2023-05-07T00:00:25;13.02;;;3.90;;
19879;SDS011;10102;50.828;4.416;2023-05-07T00:02:51;10.43;;;3.70;;
19879;SDS011;10102;50.828;4.416;2023-05-07T00:05:17;11.50;;;4.20;;
19879;SDS011;10102;50.828;4.416;2023-05-07T00:07:43;9.48;;;4.65;;
19879;SDS011;10102;50.828;4.416;2023-05-07T00:10:09;13.38;;;4.38;;
19879;SDS011;10102;50.828;4.416;2023-05-07T00:12:37;10.25;;;4.07;;
19879;SDS011;10102;50.828;4.416;2023-05-07T00:15:03;10.23;;;4.25;;
19879;SDS011;10102;50.828;4.416;2023-05-07T00:17:30;7.85;;;4.05;;
19879;SDS011;10102;50.828;4.416;2023-05-07T00:19:57;5.93;;;3.60;;
19879;SDS011;10102;50.828;4.416;2023-05-07T00:22:23;6.20;;;3.67;;
19879;SDS011;10102;50.828;4.416;2023-05-07T00:24:49;10.00;;;3.83;;
19879;SDS011;10102;50.828;4.416;2023-05-07T00:27:14;5.70;;;3.67;;
19879;SDS011;10102;50.828;4.416;2023-05-07T00:29:40;10.25;;;4.32;;
19879;SDS011;10102;50.828;4.416;2023-05-07T00:32:06;10.32;;;3.67;;
19879;SDS011;10102;50.828;4.416;2023-05-07T00:34:33;7.22;;;3.78;;
19879;SDS011;10102;50.828;4.416;2023-05-07T00:36:58;7.03;;;3.92;;
19879;SDS011;10102;50.828;4.416;2023-05-07T00:39:24;8.30;;;3.85;;
19879;SDS011;10102;50.828;4.416;2023-05-07T00:41:50;12.98;;;3.78;;
19879;SDS011;10102;50.828;4.416;2023-05-07T00:44:16;9.90;;;3.80;;
19879;SDS011;10102;50.828;4.416;2023-05-07T00:46:43;8.95;;;3.78;;
19879;SDS011;10102;50.828;4.416;2023-05-07T00:49:10;8.18;;;3.72;;
19879;SDS011;10102;50.828;4.416;2023-05-07T00:51:36;9.05;;;4.03;;
19879;SDS011;10102;50.828;4.416;2023-05-07T00:54:02;11.10;;;4.20;;
19879;SDS011;10102;50.828;4.416;2023-05-07T00:56:28;6.43;;;4.18;;
19879;SDS011;10102;50.828;4.416;2023-05-07T00:58:54;12.45;;;4.03;;
19879;SDS011;10102;50.828;4.416;2023-05-07T01:01:20;9.80;;;3.83;;
19879;SDS011;10102;50.828;4.416;2023-05-07T01:03:46;12.50;;;3.75;;
19879;SDS011;10102;50.828;4.416;2023-05-07T01:06:12;9.07;;;4.22;;
19879;SDS011;10102;50.828;4.416;2023-05-07T01:08:39;10.15;;;3.70;;
19879;SDS011;10102;50.828;4.416;2023-05-07T01:11:06;7.18;;;3.63;;
19879;SDS011;10102;50.828;4.416;2023-05-07T01:13:33;7.93;;;3.45;;
19879;SDS011;10102;50.828;4.416;2023-05-07T01:16:00;8.50;;;3.95;;
19879;SDS011;10102;50.828;4.416;2023-05-07T01:18:26;10.18;;;4.68;;
19879;SDS011;10102;50.828;4.416;2023-05-07T01:20:52;8.82;;;3.72;;
19879;SDS011;10102;50.828;4.416;2023-05-07T01:23:19;9.30;;;3.58;;
19879;SDS011;10102;50.828;4.416;2023-05-07T01:25:54;8.10;;;3.08;;
19879;SDS011;10102;50.828;4.416;2023-05-07T01:28:20;10.90;;;3.85;;
19879;SDS011;10102;50.828;4.416;2023-05-07T01:30:53;9.55;;;3.70;;
19879;SDS011;10102;50.828;4.416;2023-05-07T01:33:23;9.90;;;3.55;;
19879;SDS011;10102;50.828;4.416;2023-05-07T01:35:51;8.70;;;3.78;;
19879;SDS011;10102;50.828;4.416;2023-05-07T01:38:19;7.32;;;3.78;;
19879;SDS011;10102;50.828;4.416;2023-05-07T01:40:47;5.93;;;3.70;;
19879;SDS011;10102;50.828;4.416;2023-05-07T01:43:13;8.60;;;3.88;;
19879;SDS011;10102;50.828;4.416;2023-05-07T01:45:39;5.25;;;3.25;;
19879;SDS011;10102;50.828;4.416;2023-05-07T01:48:06;8.90;;;3.65;;
19879;SDS011;10102;50.828;4.416;2023-05-07T01:50:33;7.13;;;3.05;;
19879;SDS011;10102;50.828;4.416;2023-05-07T01:52:59;6.95;;;3.53;;
19879;SDS011;10102;50.828;4.416;2023-05-07T01:55:26;8.38;;;3.22;;
19879;SDS011;10102;50.828;4.416;2023-05-07T01:57:52;8.25;;;3.92;;
19879;SDS011;10102;50.828;4.416;2023-05-07T02:00:18;9.02;;;3.75;;
19879;SDS011;10102;50.828;4.416;2023-05-07T02:02:44;6.63;;;3.42;;
19879;SDS011;10102;50.828;4.416;2023-05-07T02:05:10;8.27;;;4.25;;
19879;SDS011;10102;50.828;4.416;2023-05-07T02:07:36;7.75;;;4.13;;
19879;SDS011;10102;50.828;4.416;2023-05-07T02:10:01;10.45;;;3.92;;
19879;SDS011;10102;50.828;4.416;2023-05-07T02:12:28;11.93;;;4.43;;
19879;SDS011;10102;50.828;4.416;2023-05-07T02:14:53;7.50;;;3.38;;
19879;SDS011;10102;50.828;4.416;2023-05-07T02:17:19;9.05;;;3.97;;
19879;SDS011;10102;50.828;4.416;2023-05-07T02:19:45;10.60;;;3.85;;
19879;SDS011;10102;50.828;4.416;2023-05-07T02:22:11;5.68;;;3.67;;
19879;SDS011;10102;50.828;4.416;2023-05-07T02:24:36;5.90;;;3.92;;
19879;SDS011;10102;50.828;4.416;2023-05-07T02:27:02;13.13;;;4.30;;
19879;SDS011;10102;50.828;4.416;2023-05-07T02:29:28;11.07;;;4.38;;
19879;SDS011;10102;50.828;4.416;2023-05-07T02:31:54;8.18;;;3.92;;
19879;SDS011;10102;50.828;4.416;2023-05-07T02:34:20;7.35;;;3.88;;
19879;SDS011;10102;50.828;4.416;2023-05-07T02:36:46;14.23;;;4.10;;
19879;SDS011;10102;50.828;4.416;2023-05-07T02:39:12;9.35;;;4.05;;
19879;SDS011;10102;50.828;4.416;2023-05-07T02:41:38;9.98;;;3.92;;
19879;SDS011;10102;50.828;4.416;2023-05-07T02:44:04;8.73;;;3.90;;
19879;SDS011;10102;50.828;4.416;2023-05-07T02:46:30;11.32;;;4.22;;
19879;SDS011;10102;50.828;4.416;2023-05-07T02:48:56;13.98;;;4.40;;
19879;SDS011;10102;50.828;4.416;2023-05-07T02:51:22;9.05;;;3.38;;
19879;SDS011;10102;50.828;4.416;2023-05-07T02:53:48;10.63;;;4.10;;
19879;SDS011;10102;50.828;4.416;2023-05-07T02:56:14;13.25;;;3.75;;
19879;SDS011;10102;50.828;4.416;2023-05-07T02:58:40;9.18;;;3.53;;
19879;SDS011;10102;50.828;4.416;2023-05-07T03:01:07;5.28;;;4.10;;
19879;SDS011;10102;50.828;4.416;2023-05-07T03:03:33;8.80;;;3.65;;
19879;SDS011;10102;50.828;4.416;2023-05-07T03:05:59;10.88;;;3.83;;
19879;SDS011;10102;50.828;4.416;2023-05-07T03:08:25;9.88;;;3.88;;
19879;SDS011;10102;50.828;4.416;2023-05-07T03:10:51;11.82;;;4.28;;
19879;SDS011;10102;50.828;4.416;2023-05-07T03:13:17;7.45;;;3.92;;
19879;SDS011;10102;50.828;4.416;2023-05-07T03:15:42;9.75;;;3.55;;
19879;SDS011;10102;50.828;4.416;2023-05-07T03:18:08;8.57;;;4.20;;
19879;SDS011;10102;50.828;4.416;2023-05-07T03:20:34;6.88;;;3.50;;
19879;SDS011;10102;50.828;4.416;2023-05-07T03:23:01;5.25;;;3.47;;
19879;SDS011;10102;50.828;4.416;2023-05-07T03:25:27;10.38;;;3.90;;
19879;SDS011;10102;50.828;4.416;2023-05-07T03:27:54;12.35;;;4.38;;
19879;SDS011;10102;50.828;4.416;2023-05-07T03:30:20;6.70;;;3.67;;
19879;SDS011;10102;50.828;4.416;2023-05-07T03:32:46;11.77;;;4.78;;
19879;SDS011;10102;50.828;4.416;2023-05-07T03:35:12;8.13;;;4.18;;
19879;SDS011;10102;50.828;4.416;2023-05-07T03:37:38;7.88;;;4.05;;
19879;SDS011;10102;50.828;4.416;2023-05-07T03:40:04;8.20;;;3.95;;
19879;SDS011;10102;50.828;4.416;2023-05-07T03:42:30;9.23;;;3.97;;
19879;SDS011;10102;50.828;4.416;2023-05-07T03:44:56;8.07;;;3.70;;
19879;SDS011;10102;50.828;4.416;2023-05-07T03:47:22;10.13;;;3.83;;
19879;SDS011;10102;50.828;4.416;2023-05-07T03:49:48;10.85;;;4.03;;
19879;SDS011;10102;50.828;4.416;2023-05-07T03:52:14;9.63;;;4.28;;
19879;SDS011;10102;50.828;4.416;2023-05-07T03:54:40;6.25;;;3.85;;
19879;SDS011;10102;50.828;4.416;2023-05-07T03:57:06;8.57;;;4.30;;
19879;SDS011;10102;50.828;4.416;2023-05-07T03:59:31;7.97;;;4.10;;
19879;SDS011;10102;50.828;4.416;2023-05-07T04:01:57;7.97;;;3.67;;
19879;SDS011;10102;50.828;4.416;2023-05-07T04:04:23;9.15;;;3.90;;
19879;SDS011;10102;50.828;4.416;2023-05-07T04:06:49;6.88;;;3.70;;
19879;SDS011;10102;50.828;4.416;2023-05-07T04:09:15;5.72;;;3.70;;
19879;SDS011;10102;50.828;4.416;2023-05-07T04:11:40;11.63;;;3.92;;
19879;SDS011;10102;50.828;4.416;2023-05-07T04:14:06;9.65;;;4.30;;
19879;SDS011;10102;50.828;4.416;2023-05-07T04:16:32;15.80;;;7.10;;
19879;SDS011;10102;50.828;4.416;2023-05-07T04:18:59;8.60;;;4.20;;
19879;SDS011;10102;50.828;4.416;2023-05-07T04:21:25;9.90;;;3.47;;
19879;SDS011;10102;50.828;4.416;2023-05-07T04:23:51;9.23;;;4.53;;
19879;SDS011;10102;50.828;4.416;2023-05-07T04:26:17;12.95;;;4.20;;
19879;SDS011;10102;50.828;4.416;2023-05-07T04:28:43;10.90;;;4.00;;
19879;SDS011;10102;50.828;4.416;2023-05-07T04:31:09;10.98;;;4.05;;
19879;SDS011;10102;50.828;4.416;2023-05-07T04:33:35;7.68;;;3.80;;
19879;SDS011;10102;50.828;4.416;2023-05-07T04:36:01;11.15;;;4.28;;
19879;SDS011;10102;50.828;4.416;2023-05-07T04:38:31;12.02;;;3.92;;
19879;SDS011;10102;50.828;4.416;2023-05-07T04:40:57;8.95;;;3.70;;
19879;SDS011;10102;50.828;4.416;2023-05-07T04:43:32;10.25;;;4.05;;
19879;SDS011;10102;50.828;4.416;2023-05-07T04:45:57;6.45;;;4.35;;
19879;SDS011;10102;50.828;4.416;2023-05-07T04:48:23;9.90;;;4.32;;
19879;SDS011;10102;50.828;4.416;2023-05-07T04:50:50;7.35;;;3.40;;
19879;SDS011;10102;50.828;4.416;2023-05-07T04:53:16;8.35;;;3.78;;
19879;SDS011;10102;50.828;4.416;2023-05-07T04:55:42;10.45;;;3.95;;
19879;SDS011;10102;50.828;4.416;2023-05-07T04:58:08;7.93;;;4.07;;
19879;SDS011;10102;50.828;4.416;2023-05-07T05:00:34;10.95;;;4.00;;
19879;SDS011;10102;50.828;4.416;2023-05-07T05:03:00;6.70;;;3.75;;
19879;SDS011;10102;50.828;4.416;2023-05-07T05:05:26;6.32;;;3.10;;
19879;SDS011;10102;50.828;4.416;2023-05-07T05:07:52;6.72;;;3.63;;
19879;SDS011;10102;50.828;4.416;2023-05-07T05:10:18;8.27;;;3.97;;
19879;SDS011;10102;50.828;4.416;2023-05-07T05:12:46;8.05;;;3.78;;
19879;SDS011;10102;50.828;4.416;2023-05-07T05:15:12;10.02;;;3.85;;
19879;SDS011;10102;50.828;4.416;2023-05-07T05:17:39;6.38;;;4.10;;
19879;SDS011;10102;50.828;4.416;2023-05-07T05:20:05;15.45;;;4.88;;
19879;SDS011;10102;50.828;4.416;2023-05-07T05:22:31;12.40;;;4.25;;
19879;SDS011;10102;50.828;4.416;2023-05-07T05:24:58;12.98;;;4.22;;
19879;SDS011;10102;50.828;4.416;2023-05-07T05:27:25;8.32;;;4.25;;
19879;SDS011;10102;50.828;4.416;2023-05-07T05:29:50;17.00;;;4.35;;
19879;SDS011;10102;50.828;4.416;2023-05-07T05:32:16;7.60;;;3.85;;
19879;SDS011;10102;50.828;4.416;2023-05-07T05:34:42;10.57;;;4.05;;
19879;SDS011;10102;50.828;4.416;2023-05-07T05:37:08;7.15;;;3.50;;
19879;SDS011;10102;50.828;4.416;2023-05-07T05:39:34;8.10;;;3.88;;
19879;SDS011;10102;50.828;4.416;2023-05-07T05:42:00;13.75;;;4.43;;
19879;SDS011;10102;50.828;4.416;2023-05-07T05:44:26;9.10;;;3.60;;
19879;SDS011;10102;50.828;4.416;2023-05-07T05:46:52;8.15;;;4.00;;
19879;SDS011;10102;50.828;4.416;2023-05-07T05:49:21;10.13;;;4.57;;
19879;SDS011;10102;50.828;4.416;2023-05-07T05:51:47;10.07;;;4.03;;
19879;SDS011;10102;50.828;4.416;2023-05-07T05:54:12;9.43;;;4.30;;
19879;SDS011;10102;50.828;4.416;2023-05-07T05:56:38;8.88;;;4.65;;
19879;SDS011;10102;50.828;4.416;2023-05-07T05:59:04;8.80;;;3.67;;
19879;SDS011;10102;50.828;4.416;2023-05-07T06:01:29;13.30;;;3.97;;
19879;SDS011;10102;50.828;4.416;2023-05-07T06:03:56;12.93;;;3.45;;
19879;SDS011;10102;50.828;4.416;2023-05-07T06:06:21;13.88;;;4.00;;
19879;SDS011;10102;50.828;4.416;2023-05-07T06:08:47;13.35;;;4.13;;
19879;SDS011;10102;50.828;4.416;2023-05-07T06:11:13;8.40;;;3.33;;
19879;SDS011;10102;50.828;4.416;2023-05-07T06:13:38;8.32;;;3.55;;
19879;SDS011;10102;50.828;4.416;2023-05-07T06:16:04;8.32;;;3.50;;
19879;SDS011;10102;50.828;4.416;2023-05-07T06:18:30;7.10;;;3.85;;
19879;SDS011;10102;50.828;4.416;2023-05-07T06:23:26;9.82;;;4.45;;
19879;SDS011;10102;50.828;4.416;2023-05-07T06:25:54;11.57;;;4.53;;
19879;SDS011;10102;50.828;4.416;2023-05-07T06:28:20;11.50;;;4.13;;
19879;SDS011;10102;50.828;4.416;2023-05-07T06:30:46;14.43;;;4.55;;
19879;SDS011;10102;50.828;4.416;2023-05-07T06:33:12;9.18;;;4.28;;
19879;SDS011;10102;50.828;4.416;2023-05-07T06:35:42;8.57;;;4.65;;
19879;SDS011;10102;50.828;4.416;2023-05-07T06:38:08;12.02;;;4.70;;
19879;SDS011;10102;50.828;4.416;2023-05-07T06:40:35;14.10;;;4.70;;
19879;SDS011;10102;50.828;4.416;2023-05-07T06:43:00;7.30;;;3.63;;
19879;SDS011;10102;50.828;4.416;2023-05-07T06:45:26;7.88;;;4.53;;
19879;SDS011;10102;50.828;4.416;2023-05-07T06:47:52;8.48;;;4.07;;
19879;SDS011;10102;50.828;4.416;2023-05-07T06:50:18;9.85;;;3.83;;
19879;SDS011;10102;50.828;4.416;2023-05-07T06:52:44;9.02;;;4.55;;
19879;SDS011;10102;50.828;4.416;2023-05-07T06:55:10;11.27;;;4.05;;
19879;SDS011;10102;50.828;4.416;2023-05-07T06:57:36;13.73;;;4.22;;
19879;SDS011;10102;50.828;4.416;2023-05-07T07:00:02;11.65;;;4.28;;
19879;SDS011;10102;50.828;4.416;2023-05-07T07:02:31;10.32;;;4.57;;
19879;SDS011;10102;50.828;4.416;2023-05-07T07:04:57;11.75;;;4.60;;
19879;SDS011;10102;50.828;4.416;2023-05-07T07:07:23;7.13;;;3.83;;
19879;SDS011;10102;50.828;4.416;2023-05-07T07:09:49;9.27;;;3.88;;
19879;SDS011;10102;50.828;4.416;2023-05-07T07:12:16;9.57;;;4.45;;
19879;SDS011;10102;50.828;4.416;2023-05-07T07:14:41;9.35;;;3.70;;
19879;SDS011;10102;50.828;4.416;2023-05-07T07:17:07;7.78;;;3.90;;
19879;SDS011;10102;50.828;4.416;2023-05-07T07:19:33;9.57;;;4.35;;
19879;SDS011;10102;50.828;4.416;2023-05-07T07:21:58;7.88;;;3.60;;
19879;SDS011;10102;50.828;4.416;2023-05-07T07:24:24;7.88;;;4.40;;
19879;SDS011;10102;50.828;4.416;2023-05-07T07:26:50;9.48;;;4.70;;
19879;SDS011;10102;50.828;4.416;2023-05-07T07:29:17;13.40;;;3.72;;
19879;SDS011;10102;50.828;4.416;2023-05-07T07:31:43;11.27;;;4.60;;
19879;SDS011;10102;50.828;4.416;2023-05-07T07:34:09;9.75;;;4.30;;
19879;SDS011;10102;50.828;4.416;2023-05-07T07:36:35;9.65;;;4.57;;
19879;SDS011;10102;50.828;4.416;2023-05-07T07:39:00;7.88;;;4.40;;
19879;SDS011;10102;50.828;4.416;2023-05-07T07:41:26;8.93;;;4.60;;
19879;SDS011;10102;50.828;4.416;2023-05-07T07:43:51;8.52;;;4.18;;
19879;SDS011;10102;50.828;4.416;2023-05-07T07:46:17;6.75;;;3.83;;
19879;SDS011;10102;50.828;4.416;2023-05-07T07:48:43;9.65;;;4.88;;
19879;SDS011;10102;50.828;4.416;2023-05-07T07:51:08;10.77;;;4.22;;
19879;SDS011;10102;50.828;4.416;2023-05-07T07:53:34;7.55;;;3.80;;
19879;SDS011;10102;50.828;4.416;2023-05-07T07:56:00;7.13;;;4.00;;
19879;SDS011;10102;50.828;4.416;2023-05-07T07:58:26;6.75;;;3.78;;
19879;SDS011;10102;50.828;4.416;2023-05-07T08:00:51;6.32;;;3.40;;
19879;SDS011;10102;50.828;4.416;2023-05-07T08:03:17;5.70;;;3.38;;
19879;SDS011;10102;50.828;4.416;2023-05-07T08:05:43;8.13;;;3.72;;
19879;SDS011;10102;50.828;4.416;2023-05-07T08:08:09;9.02;;;3.63;;
19879;SDS011;10102;50.828;4.416;2023-05-07T08:10:35;8.77;;;4.35;;
19879;SDS011;10102;50.828;4.416;2023-05-07T08:13:04;9.50;;;3.78;;
19879;SDS011;10102;50.828;4.416;2023-05-07T08:15:30;8.18;;;3.60;;
19879;SDS011;10102;50.828;4.416;2023-05-07T08:17:57;6.82;;;3.80;;
19879;SDS011;10102;50.828;4.416;2023-05-07T08:20:25;5.63;;;3.10;;
19879;SDS011;10102;50.828;4.416;2023-05-07T08:22:51;8.20;;;3.47;;
19879;SDS011;10102;50.828;4.416;2023-05-07T08:25:16;9.10;;;3.95;;
19879;SDS011;10102;50.828;4.416;2023-05-07T08:27:42;6.03;;;3.58;;
19879;SDS011;10102;50.828;4.416;2023-05-07T08:30:09;6.28;;;3.45;;
19879;SDS011;10102;50.828;4.416;2023-05-07T08:32:36;10.80;;;4.30;;
19879;SDS011;10102;50.828;4.416;2023-05-07T08:35:01;9.05;;;4.13;;
19879;SDS011;10102;50.828;4.416;2023-05-07T08:37:27;6.93;;;3.97;;
19879;SDS011;10102;50.828;4.416;2023-05-07T08:39:53;8.00;;;3.70;;
19879;SDS011;10102;50.828;4.416;2023-05-07T08:42:18;7.78;;;3.60;;
19879;SDS011;10102;50.828;4.416;2023-05-07T08:44:48;9.02;;;3.78;;
19879;SDS011;10102;50.828;4.416;2023-05-07T08:47:18;7.68;;;3.63;;
19879;SDS011;10102;50.828;4.416;2023-05-07T08:49:45;9.02;;;3.95;;
19879;SDS011;10102;50.828;4.416;2023-05-07T08:52:12;7.25;;;3.63;;
19879;SDS011;10102;50.828;4.416;2023-05-07T08:54:37;6.80;;;3.80;;
19879;SDS011;10102;50.828;4.416;2023-05-07T08:57:04;7.63;;;3.53;;
19879;SDS011;10102;50.828;4.416;2023-05-07T08:59:30;7.28;;;3.28;;
19879;SDS011;10102;50.828;4.416;2023-05-07T09:01:56;7.57;;;3.20;;
19879;SDS011;10102;50.828;4.416;2023-05-07T09:04:28;7.22;;;3.40;;
19879;SDS011;10102;50.828;4.416;2023-05-07T09:06:55;7.68;;;3.17;;
19879;SDS011;10102;50.828;4.416;2023-05-07T09:09:21;7.20;;;3.85;;
19879;SDS011;10102;50.828;4.416;2023-05-07T09:11:47;8.80;;;4.15;;
19879;SDS011;10102;50.828;4.416;2023-05-07T09:14:12;7.05;;;3.40;;
19879;SDS011;10102;50.828;4.416;2023-05-07T09:16:38;8.75;;;3.42;;
19879;SDS011;10102;50.828;4.416;2023-05-07T09:19:04;7.53;;;3.25;;
19879;SDS011;10102;50.828;4.416;2023-05-07T09:21:32;5.60;;;3.80;;
19879;SDS011;10102;50.828;4.416;2023-05-07T09:23:57;8.80;;;4.32;;
19879;SDS011;10102;50.828;4.416;2023-05-07T09:26:24;5.20;;;3.28;;
19879;SDS011;10102;50.828;4.416;2023-05-07T09:28:50;8.07;;;3.63;;
19879;SDS011;10102;50.828;4.416;2023-05-07T09:31:16;7.65;;;3.72;;
19879;SDS011;10102;50.828;4.416;2023-05-07T09:33:42;11.10;;;4.72;;
19879;SDS011;10102;50.828;4.416;2023-05-07T09:36:08;7.78;;;4.32;;
19879;SDS011;10102;50.828;4.416;2023-05-07T09:38:36;8.45;;;4.53;;
19879;SDS011;10102;50.828;4.416;2023-05-07T09:43:36;11.80;;;3.47;;
19879;SDS011;10102;50.828;4.416;2023-05-07T09:46:13;7.05;;;2.90;;
19879;SDS011;10102;50.828;4.416;2023-05-07T09:48:41;4.97;;;2.28;;
19879;SDS011;10102;50.828;4.416;2023-05-07T09:51:29;10.18;;;3.35;;
19879;SDS011;10102;50.828;4.416;2023-05-07T09:54:06;5.05;;;2.60;;
19879;SDS011;10102;50.828;4.416;2023-05-07T09:56:32;6.22;;;2.97;;
19879;SDS011;10102;50.828;4.416;2023-05-07T09:59:00;6.75;;;2.78;;
19879;SDS011;10102;50.828;4.416;2023-05-07T10:01:25;5.82;;;3.58;;
19879;SDS011;10102;50.828;4.416;2023-05-07T10:03:52;10.25;;;4.03;;
19879;SDS011;10102;50.828;4.416;2023-05-07T10:06:23;9.75;;;3.60;;
19879;SDS011;10102;50.828;4.416;2023-05-07T10:08:50;11.82;;;4.00;;
19879;SDS011;10102;50.828;4.416;2023-05-07T10:11:17;5.97;;;3.10;;
19879;SDS011;10102;50.828;4.416;2023-05-07T10:13:43;7.22;;;3.70;;
19879;SDS011;10102;50.828;4.416;2023-05-07T10:16:09;7.13;;;3.33;;
19879;SDS011;10102;50.828;4.416;2023-05-07T10:18:35;7.25;;;3.30;;
19879;SDS011;10102;50.828;4.416;2023-05-07T10:21:07;5.35;;;2.95;;
19879;SDS011;10102;50.828;4.416;2023-05-07T10:23:36;6.00;;;3.20;;
19879;SDS011;10102;50.828;4.416;2023-05-07T10:26:04;9.50;;;3.53;;
19879;SDS011;10102;50.828;4.416;2023-05-07T10:28:34;7.78;;;2.88;;
19879;SDS011;10102;50.828;4.416;2023-05-07T10:33:53;5.60;;;2.60;;
19879;SDS011;10102;50.828;4.416;2023-05-07T10:36:20;6.97;;;3.33;;
19879;SDS011;10102;50.828;4.416;2023-05-07T10:38:47;5.45;;;3.10;;
19879;SDS011;10102;50.828;4.416;2023-05-07T10:41:13;7.40;;;3.03;;
19879;SDS011;10102;50.828;4.416;2023-05-07T10:43:40;5.07;;;3.13;;
19879;SDS011;10102;50.828;4.416;2023-05-07T10:46:20;4.78;;;3.10;;
19879;SDS011;10102;50.828;4.416;2023-05-07T10:51:29;7.45;;;2.22;;
19879;SDS011;10102;50.828;4.416;2023-05-07T10:56:35;5.80;;;2.83;;
19879;SDS011;10102;50.828;4.416;2023-05-07T11:01:55;5.18;;;2.83;;
19879;SDS011;10102;50.828;4.416;2023-05-07T11:04:23;3.95;;;2.45;;
19879;SDS011;10102;50.828;4.416;2023-05-07T11:12:16;4.53;;;2.20;;
19879;SDS011;10102;50.828;4.416;2023-05-07T11:17:29;10.05;;;2.70;;
19879;SDS011;10102;50.828;4.416;2023-05-07T11:20:00;3.58;;;2.47;;
19879;SDS011;10102;50.828;4.416;2023-05-07T11:24:56;5.65;;;2.47;;
19879;SDS011;10102;50.828;4.416;2023-05-07T11:27:24;3.50;;;2.25;;
19879;SDS011;10102;50.828;4.416;2023-05-07T11:29:51;5.60;;;2.83;;
19879;SDS011;10102;50.828;4.416;2023-05-07T11:32:23;7.75;;;3.80;;
19879;SDS011;10102;50.828;4.416;2023-05-07T11:34:56;5.50;;;2.20;;
19879;SDS011;10102;50.828;4.416;2023-05-07T11:37:23;5.00;;;2.45;;
19879;SDS011;10102;50.828;4.416;2023-05-07T11:39:49;3.75;;;2.33;;
19879;SDS011;10102;50.828;4.416;2023-05-07T11:44:55;7.25;;;2.30;;
19879;SDS011;10102;50.828;4.416;2023-05-07T11:47:21;6.82;;;2.03;;
19879;SDS011;10102;50.828;4.416;2023-05-07T11:49:48;6.78;;;2.83;;
19879;SDS011;10102;50.828;4.416;2023-05-07T11:52:15;4.80;;;2.33;;
19879;SDS011;10102;50.828;4.416;2023-05-07T11:54:41;4.30;;;1.98;;
19879;SDS011;10102;50.828;4.416;2023-05-07T11:57:16;2.50;;;1.83;;
19879;SDS011;10102;50.828;4.416;2023-05-07T11:59:42;4.38;;;2.60;;
19879;SDS011;10102;50.828;4.416;2023-05-07T12:02:13;4.28;;;1.85;;
19879;SDS011;10102;50.828;4.416;2023-05-07T12:04:40;4.72;;;2.00;;
19879;SDS011;10102;50.828;4.416;2023-05-07T12:07:11;4.88;;;2.20;;
19879;SDS011;10102;50.828;4.416;2023-05-07T12:09:38;4.63;;;2.33;;
19879;SDS011;10102;50.828;4.416;2023-05-07T12:12:04;4.20;;;2.08;;
19879;SDS011;10102;50.828;4.416;2023-05-07T12:14:30;4.82;;;2.20;;
19879;SDS011;10102;50.828;4.416;2023-05-07T12:16:57;5.18;;;2.05;;
19879;SDS011;10102;50.828;4.416;2023-05-07T12:19:30;3.53;;;1.92;;
19879;SDS011;10102;50.828;4.416;2023-05-07T12:21:56;8.65;;;1.83;;
19879;SDS011;10102;50.828;4.416;2023-05-07T12:24:22;4.85;;;2.13;;
19879;SDS011;10102;50.828;4.416;2023-05-07T12:26:48;2.63;;;1.60;;
19879;SDS011;10102;50.828;4.416;2023-05-07T12:29:15;5.57;;;2.08;;
19879;SDS011;10102;50.828;4.416;2023-05-07T12:31:41;5.28;;;2.08;;
19879;SDS011;10102;50.828;4.416;2023-05-07T12:34:07;3.78;;;2.40;;
19879;SDS011;10102;50.828;4.416;2023-05-07T12:36:36;9.23;;;5.50;;
19879;SDS011;10102;50.828;4.416;2023-05-07T12:39:04;3.30;;;2.20;;
19879;SDS011;10102;50.828;4.416;2023-05-07T12:41:30;4.15;;;2.40;;
19879;SDS011;10102;50.828;4.416;2023-05-07T12:44:16;4.72;;;2.63;;
19879;SDS011;10102;50.828;4.416;2023-05-07T12:46:42;5.30;;;2.17;;
19879;SDS011;10102;50.828;4.416;2023-05-07T12:49:08;4.85;;;2.17;;
19879;SDS011;10102;50.828;4.416;2023-05-07T12:51:34;3.00;;;2.15;;
19879;SDS011;10102;50.828;4.416;2023-05-07T12:54:00;3.88;;;2.10;;
19879;SDS011;10102;50.828;4.416;2023-05-07T12:56:27;4.68;;;2.15;;
19879;SDS011;10102;50.828;4.416;2023-05-07T12:58:59;7.63;;;2.95;;
19879;SDS011;10102;50.828;4.416;2023-05-07T13:01:28;3.95;;;2.70;;
19879;SDS011;10102;50.828;4.416;2023-05-07T13:03:56;5.10;;;3.38;;
19879;SDS011;10102;50.828;4.416;2023-05-07T13:06:26;4.00;;;3.40;;
19879;SDS011;10102;50.828;4.416;2023-05-07T13:08:52;5.88;;;4.07;;
19879;SDS011;10102;50.828;4.416;2023-05-07T13:11:18;5.15;;;4.22;;
19879;SDS011;10102;50.828;4.416;2023-05-07T13:13:43;5.95;;;4.40;;
19879;SDS011;10102;50.828;4.416;2023-05-07T13:16:10;6.70;;;5.43;;
19879;SDS011;10102;50.828;4.416;2023-05-07T13:18:37;7.47;;;5.15;;
19879;SDS011;10102;50.828;4.416;2023-05-07T13:21:04;4.78;;;4.35;;
19879;SDS011;10102;50.828;4.416;2023-05-07T13:23:29;5.78;;;5.07;;
19879;SDS011;10102;50.828;4.416;2023-05-07T13:25:55;5.80;;;4.97;;
19879;SDS011;10102;50.828;4.416;2023-05-07T13:28:22;7.97;;;6.78;;
19879;SDS011;10102;50.828;4.416;2023-05-07T13:30:51;6.72;;;5.50;;
19879;SDS011;10102;50.828;4.416;2023-05-07T13:33:19;6.53;;;5.85;;
19879;SDS011;10102;50.828;4.416;2023-05-07T13:35:45;8.93;;;5.72;;
19879;SDS011;10102;50.828;4.416;2023-05-07T13:38:10;9.38;;;6.15;;
19879;SDS011;10102;50.828;4.416;2023-05-07T13:40:36;8.25;;;6.70;;
19879;SDS011;10102;50.828;4.416;2023-05-07T13:43:01;8.43;;;6.30;;
19879;SDS011;10102;50.828;4.416;2023-05-07T13:45:30;7.72;;;5.82;;
19879;SDS011;10102;50.828;4.416;2023-05-07T13:47:56;10.48;;;7.65;;
19879;SDS011;10102;50.828;4.416;2023-05-07T13:50:22;7.25;;;6.32;;
19879;SDS011;10102;50.828;4.416;2023-05-07T13:52:48;8.57;;;7.13;;
19879;SDS011;10102;50.828;4.416;2023-05-07T13:55:17;7.85;;;6.43;;
19879;SDS011;10102;50.828;4.416;2023-05-07T13:57:43;8.80;;;6.70;;
19879;SDS011;10102;50.828;4.416;2023-05-07T14:00:09;8.00;;;7.07;;
19879;SDS011;10102;50.828;4.416;2023-05-07T14:02:35;7.78;;;6.70;;
19879;SDS011;10102;50.828;4.416;2023-05-07T14:05:01;7.72;;;6.30;;
19879;SDS011;10102;50.828;4.416;2023-05-07T14:07:27;9.15;;;6.80;;
19879;SDS011;10102;50.828;4.416;2023-05-07T14:09:53;10.70;;;7.65;;
19879;SDS011;10102;50.828;4.416;2023-05-07T14:12:19;9.65;;;7.38;;
19879;SDS011;10102;50.828;4.416;2023-05-07T14:14:45;9.48;;;8.25;;
19879;SDS011;10102;50.828;4.416;2023-05-07T14:17:11;9.45;;;8.15;;
19879;SDS011;10102;50.828;4.416;2023-05-07T14:19:37;9.45;;;8.38;;
19879;SDS011;10102;50.828;4.416;2023-05-07T14:22:03;10.93;;;9.43;;
19879;SDS011;10102;50.828;4.416;2023-05-07T14:24:28;9.82;;;8.32;;
19879;SDS011;10102;50.828;4.416;2023-05-07T14:26:54;12.60;;;8.70;;
19879;SDS011;10102;50.828;4.416;2023-05-07T14:29:20;11.93;;;8.75;;
19879;SDS011;10102;50.828;4.416;2023-05-07T14:31:45;11.23;;;8.07;;
19879;SDS011;10102;50.828;4.416;2023-05-07T14:34:11;8.90;;;6.93;;
19879;SDS011;10102;50.828;4.416;2023-05-07T14:36:37;8.90;;;6.40;;
19879;SDS011;10102;50.828;4.416;2023-05-07T14:39:03;9.57;;;7.15;;
19879;SDS011;10102;50.828;4.416;2023-05-07T14:41:29;10.50;;;7.28;;
19879;SDS011;10102;50.828;4.416;2023-05-07T14:43:54;8.43;;;6.97;;
19879;SDS011;10102;50.828;4.416;2023-05-07T14:46:20;6.55;;;5.45;;
19879;SDS011;10102;50.828;4.416;2023-05-07T14:48:46;8.68;;;6.47;;
19879;SDS011;10102;50.828;4.416;2023-05-07T14:51:12;8.65;;;5.57;;
19879;SDS011;10102;50.828;4.416;2023-05-07T14:53:38;9.80;;;5.72;;
19879;SDS011;10102;50.828;4.416;2023-05-07T14:56:04;6.35;;;5.30;;
19879;SDS011;10102;50.828;4.416;2023-05-07T14:58:30;10.13;;;6.78;;
19879;SDS011;10102;50.828;4.416;2023-05-07T15:00:56;9.18;;;7.03;;
19879;SDS011;10102;50.828;4.416;2023-05-07T15:03:22;8.40;;;6.90;;
19879;SDS011;10102;50.828;4.416;2023-05-07T15:05:48;11.32;;;7.40;;
19879;SDS011;10102;50.828;4.416;2023-05-07T15:08:16;10.30;;;6.95;;
19879;SDS011;10102;50.828;4.416;2023-05-07T15:10:42;8.02;;;6.72;;